BCS5547 EPWA-EDDP
Flight info
| Callsign | BCS5547 |
|---|---|
| Flight time | 1h 4m |
| Altitude | 30000 |
| Route | LOLSI T174 KORUP Z220 BEBKU/N0454F280 T950 LUXBO LUXBO1R |
| Aircraft | A306/H-SDE3FGHIRWY/LB1 |
Departure
| Time | 2026-05-08 01:20 |
|---|---|
| Airport | Warsaw Chopin Airport (EPWA) |
Arrival
| Time | 2026-05-08 02:25 |
|---|---|
| Airport | Leipzig/Halle Airport (EDDP) |
| Time | Latitude | Longitude | Altitude | Speed | Heading |
|---|---|---|---|---|---|
| 2026-05-08 00:53 | 52.15509 | 20.98172 | 370 ft | 0 kts | 61° |
| 2026-05-08 01:11 | 52.15509 | 20.98171 | 370 ft | 0 kts | 61° |
| 2026-05-08 01:12 | 52.15502 | 20.98151 | 370 ft | 2 kts | 61° |
| 2026-05-08 01:12 | 52.15495 | 20.98129 | 370 ft | 2 kts | 61° |
| 2026-05-08 01:12 | 52.15488 | 20.98108 | 370 ft | 2 kts | 61° |
| 2026-05-08 01:12 | 52.15480 | 20.98087 | 370 ft | 2 kts | 61° |
| 2026-05-08 01:13 | 52.15473 | 20.98065 | 370 ft | 2 kts | 61° |
| 2026-05-08 01:13 | 52.15466 | 20.98044 | 370 ft | 2 kts | 61° |
| 2026-05-08 01:13 | 52.15462 | 20.98032 | 370 ft | 0 kts | 61° |
| 2026-05-08 01:16 | 52.15462 | 20.98033 | 370 ft | 0 kts | 61° |
| 2026-05-08 01:16 | 52.15464 | 20.98039 | 370 ft | 5 kts | 61° |
| 2026-05-08 01:16 | 52.15525 | 20.98031 | 370 ft | 5 kts | 308° |
| 2026-05-08 01:17 | 52.15552 | 20.97996 | 370 ft | 3 kts | 336° |
| 2026-05-08 01:17 | 52.15578 | 20.97988 | 370 ft | 4 kts | 14° |
| 2026-05-08 01:17 | 52.15618 | 20.98013 | 370 ft | 7 kts | 22° |
| 2026-05-08 01:17 | 52.15671 | 20.98049 | 370 ft | 9 kts | 23° |
| 2026-05-08 01:18 | 52.15736 | 20.98100 | 370 ft | 11 kts | 26° |
| 2026-05-08 01:18 | 52.15814 | 20.98160 | 370 ft | 13 kts | 26° |
| 2026-05-08 01:18 | 52.15905 | 20.98229 | 370 ft | 15 kts | 24° |
| 2026-05-08 01:18 | 52.16008 | 20.98304 | 370 ft | 17 kts | 25° |
| 2026-05-08 01:19 | 52.16088 | 20.98355 | 370 ft | 9 kts | 2° |
| 2026-05-08 01:19 | 52.16134 | 20.98277 | 370 ft | 11 kts | 296° |
| 2026-05-08 01:19 | 52.16213 | 20.97988 | 370 ft | 56 kts | 291° |
| 2026-05-08 01:19 | 52.16471 | 20.97084 | 371 ft | 118 kts | 295° |
| 2026-05-08 01:20 | 52.16887 | 20.95600 | 374 ft | 171 kts | 296° |
| 2026-05-08 01:20 | 52.17399 | 20.93786 | 902 ft | 175 kts | 297° |
| 2026-05-08 01:20 | 52.17936 | 20.91911 | 1330 ft | 188 kts | 296° |
| 2026-05-08 01:20 | 52.18294 | 20.89845 | 1843 ft | 202 kts | 273° |
| 2026-05-08 01:21 | 52.18187 | 20.87457 | 2219 ft | 226 kts | 266° |
| 2026-05-08 01:21 | 52.18082 | 20.84774 | 2667 ft | 250 kts | 275° |
| 2026-05-08 01:21 | 52.18308 | 20.81907 | 3454 ft | 261 kts | 282° |
| 2026-05-08 01:21 | 52.18657 | 20.78981 | 4381 ft | 267 kts | 283° |
| 2026-05-08 01:22 | 52.19042 | 20.76005 | 5352 ft | 271 kts | 283° |
| 2026-05-08 01:22 | 52.19443 | 20.73024 | 6274 ft | 274 kts | 283° |
| 2026-05-08 01:22 | 52.19472 | 20.69971 | 7082 ft | 279 kts | 259° |
| 2026-05-08 01:22 | 52.18944 | 20.66907 | 7887 ft | 283 kts | 253° |
| 2026-05-08 01:23 | 52.18315 | 20.63908 | 8647 ft | 284 kts | 252° |
| 2026-05-08 01:23 | 52.17668 | 20.60906 | 9365 ft | 285 kts | 251° |
| 2026-05-08 01:23 | 52.17006 | 20.57867 | 10066 ft | 286 kts | 251° |
| 2026-05-08 01:23 | 52.16332 | 20.54792 | 10497 ft | 297 kts | 251° |
| 2026-05-08 01:24 | 52.15639 | 20.51475 | 10699 ft | 316 kts | 257° |
| 2026-05-08 01:24 | 52.15432 | 20.47835 | 10866 ft | 336 kts | 270° |
| 2026-05-08 01:24 | 52.15517 | 20.43963 | 11028 ft | 355 kts | 273° |
| 2026-05-08 01:24 | 52.15688 | 20.39849 | 11428 ft | 366 kts | 274° |
| 2026-05-08 01:25 | 52.15868 | 20.35755 | 12026 ft | 370 kts | 274° |
| 2026-05-08 01:25 | 52.16046 | 20.31537 | 12681 ft | 371 kts | 273° |
| 2026-05-08 01:25 | 52.16219 | 20.27336 | 13296 ft | 374 kts | 273° |
| 2026-05-08 01:25 | 52.16388 | 20.23160 | 13869 ft | 376 kts | 272° |
| 2026-05-08 01:26 | 52.16562 | 20.18882 | 14429 ft | 380 kts | 272° |
| 2026-05-08 01:26 | 52.16736 | 20.14613 | 14996 ft | 381 kts | 272° |
| 2026-05-08 01:26 | 52.16908 | 20.10301 | 15543 ft | 383 kts | 272° |
| 2026-05-08 01:26 | 52.17077 | 20.05982 | 16053 ft | 386 kts | 272° |
| 2026-05-08 01:27 | 52.17250 | 20.01572 | 16549 ft | 388 kts | 271° |
| 2026-05-08 01:27 | 52.17419 | 19.97238 | 17026 ft | 390 kts | 271° |
| 2026-05-08 01:27 | 52.17588 | 19.92832 | 17488 ft | 391 kts | 271° |
| 2026-05-08 01:27 | 52.17722 | 19.88350 | 17891 ft | 393 kts | 267° |
| 2026-05-08 01:28 | 52.17539 | 19.83963 | 18293 ft | 393 kts | 261° |
| 2026-05-08 01:28 | 52.17160 | 19.79532 | 18736 ft | 393 kts | 258° |
| 2026-05-08 01:28 | 52.16738 | 19.75146 | 19169 ft | 395 kts | 258° |
| 2026-05-08 01:28 | 52.16319 | 19.70738 | 19576 ft | 396 kts | 258° |
| 2026-05-08 01:29 | 52.15908 | 19.66305 | 19923 ft | 399 kts | 258° |
| 2026-05-08 01:29 | 52.15504 | 19.61867 | 20227 ft | 402 kts | 258° |
| 2026-05-08 01:29 | 52.15098 | 19.57392 | 20526 ft | 405 kts | 258° |
| 2026-05-08 01:29 | 52.14684 | 19.52817 | 20842 ft | 408 kts | 258° |
| 2026-05-08 01:30 | 52.14269 | 19.48256 | 21158 ft | 410 kts | 258° |
| 2026-05-08 01:30 | 52.13847 | 19.43644 | 21468 ft | 413 kts | 258° |
| 2026-05-08 01:30 | 52.13425 | 19.39053 | 21765 ft | 415 kts | 258° |
| 2026-05-08 01:30 | 52.12989 | 19.34381 | 22054 ft | 417 kts | 257° |
| 2026-05-08 01:31 | 52.12544 | 19.29723 | 22359 ft | 419 kts | 257° |
| 2026-05-08 01:31 | 52.12096 | 19.25008 | 22650 ft | 420 kts | 257° |
| 2026-05-08 01:31 | 52.11660 | 19.20374 | 22909 ft | 422 kts | 257° |
| 2026-05-08 01:31 | 52.11216 | 19.15642 | 23157 ft | 425 kts | 257° |
| 2026-05-08 01:32 | 52.10766 | 19.10863 | 23413 ft | 426 kts | 257° |
| 2026-05-08 01:32 | 52.10313 | 19.06089 | 23677 ft | 428 kts | 257° |
| 2026-05-08 01:32 | 52.09861 | 19.01337 | 23938 ft | 429 kts | 257° |
| 2026-05-08 01:32 | 52.09406 | 18.96569 | 24190 ft | 431 kts | 257° |
| 2026-05-08 01:33 | 52.08941 | 18.91721 | 24443 ft | 432 kts | 257° |
| 2026-05-08 01:33 | 52.08481 | 18.86945 | 24691 ft | 433 kts | 257° |
| 2026-05-08 01:33 | 52.08011 | 18.82095 | 24938 ft | 434 kts | 257° |
| 2026-05-08 01:33 | 52.07542 | 18.77277 | 25193 ft | 435 kts | 257° |
| 2026-05-08 01:34 | 52.07069 | 18.72415 | 25447 ft | 436 kts | 257° |
| 2026-05-08 01:34 | 52.06594 | 18.67548 | 25690 ft | 437 kts | 257° |
| 2026-05-08 01:34 | 52.06116 | 18.62682 | 25923 ft | 438 kts | 257° |
| 2026-05-08 01:34 | 52.05633 | 18.57795 | 26148 ft | 440 kts | 257° |
| 2026-05-08 01:35 | 52.05145 | 18.52883 | 26361 ft | 441 kts | 256° |
| 2026-05-08 01:35 | 52.04660 | 18.48019 | 26567 ft | 442 kts | 256° |
| 2026-05-08 01:35 | 52.04166 | 18.43098 | 26780 ft | 443 kts | 256° |
| 2026-05-08 01:35 | 52.03665 | 18.38121 | 27040 ft | 443 kts | 256° |
| 2026-05-08 01:36 | 52.03167 | 18.33195 | 27266 ft | 443 kts | 255° |
| 2026-05-08 01:36 | 52.02663 | 18.28251 | 27465 ft | 445 kts | 255° |
| 2026-05-08 01:36 | 52.02155 | 18.23354 | 27631 ft | 446 kts | 255° |
| 2026-05-08 01:36 | 52.01646 | 18.18333 | 27780 ft | 448 kts | 255° |
| 2026-05-08 01:37 | 52.01162 | 18.13405 | 27995 ft | 447 kts | 255° |
| 2026-05-08 01:37 | 52.00655 | 18.08416 | 28280 ft | 444 kts | 254° |
| 2026-05-08 01:37 | 52.00133 | 18.03541 | 28492 ft | 443 kts | 253° |
| 2026-05-08 01:37 | 51.99583 | 17.98617 | 28646 ft | 443 kts | 252° |
| 2026-05-08 01:38 | 51.99000 | 17.93664 | 28796 ft | 445 kts | 252° |
| 2026-05-08 01:38 | 51.98432 | 17.88697 | 28949 ft | 446 kts | 252° |
| 2026-05-08 01:38 | 51.97858 | 17.83778 | 29170 ft | 445 kts | 252° |
| 2026-05-08 01:38 | 51.97293 | 17.78833 | 29407 ft | 443 kts | 252° |
| 2026-05-08 01:39 | 51.96730 | 17.73885 | 29585 ft | 442 kts | 252° |
| 2026-05-08 01:39 | 51.96167 | 17.68888 | 29727 ft | 442 kts | 252° |
| 2026-05-08 01:39 | 51.95614 | 17.63972 | 29862 ft | 442 kts | 252° |
| 2026-05-08 01:39 | 51.95040 | 17.58985 | 30002 ft | 442 kts | 252° |
| 2026-05-08 01:40 | 51.94466 | 17.54072 | 30062 ft | 442 kts | 252° |
| 2026-05-08 01:40 | 51.93318 | 17.44244 | 30073 ft | 440 kts | 252° |
| 2026-05-08 01:41 | 51.92178 | 17.34515 | 30033 ft | 439 kts | 251° |
| 2026-05-08 01:41 | 51.91026 | 17.24770 | 30022 ft | 439 kts | 252° |
| 2026-05-08 01:42 | 51.89879 | 17.15067 | 30014 ft | 439 kts | 252° |
| 2026-05-08 01:42 | 51.88721 | 17.05327 | 30044 ft | 439 kts | 252° |
| 2026-05-08 01:43 | 51.87542 | 16.95615 | 30051 ft | 440 kts | 253° |
| 2026-05-08 01:43 | 51.86375 | 16.85908 | 30053 ft | 440 kts | 253° |
| 2026-05-08 01:44 | 51.85205 | 16.76222 | 30044 ft | 440 kts | 254° |
| 2026-05-08 01:44 | 51.84011 | 16.66586 | 30045 ft | 441 kts | 254° |
| 2026-05-08 01:45 | 51.82813 | 16.56921 | 30046 ft | 441 kts | 255° |
| 2026-05-08 01:45 | 51.81601 | 16.47206 | 30046 ft | 441 kts | 255° |
| 2026-05-08 01:46 | 51.80383 | 16.37497 | 30050 ft | 441 kts | 255° |
| 2026-05-08 01:46 | 51.79159 | 16.27805 | 30049 ft | 441 kts | 255° |
| 2026-05-08 01:47 | 51.77933 | 16.18158 | 30048 ft | 441 kts | 255° |
| 2026-05-08 01:47 | 51.76697 | 16.08494 | 30049 ft | 441 kts | 255° |
| 2026-05-08 01:48 | 51.74824 | 15.94003 | 30048 ft | 442 kts | 255° |
| 2026-05-08 01:48 | 51.73564 | 15.84337 | 30051 ft | 442 kts | 255° |
| 2026-05-08 01:49 | 51.72275 | 15.74667 | 30050 ft | 441 kts | 255° |
| 2026-05-08 01:49 | 51.70889 | 15.65054 | 30049 ft | 442 kts | 255° |
| 2026-05-08 01:50 | 51.69590 | 15.55426 | 30049 ft | 442 kts | 256° |
| 2026-05-08 01:50 | 51.68300 | 15.45770 | 30050 ft | 442 kts | 256° |
| 2026-05-08 01:51 | 51.66996 | 15.36119 | 30052 ft | 442 kts | 256° |
| 2026-05-08 01:51 | 51.65681 | 15.26478 | 30056 ft | 441 kts | 256° |
| 2026-05-08 01:52 | 51.64350 | 15.16783 | 30059 ft | 441 kts | 256° |
| 2026-05-08 01:52 | 51.63006 | 15.07046 | 30061 ft | 441 kts | 256° |
| 2026-05-08 01:53 | 51.61670 | 14.97436 | 30060 ft | 442 kts | 256° |
| 2026-05-08 01:53 | 51.60312 | 14.87719 | 30059 ft | 442 kts | 257° |
| 2026-05-08 01:54 | 51.58947 | 14.78016 | 30064 ft | 442 kts | 257° |
| 2026-05-08 01:54 | 51.57550 | 14.68406 | 30074 ft | 442 kts | 257° |
| 2026-05-08 01:55 | 51.56170 | 14.58790 | 30085 ft | 443 kts | 258° |
| 2026-05-08 01:55 | 51.54791 | 14.49126 | 30091 ft | 444 kts | 258° |
| 2026-05-08 01:56 | 51.53413 | 14.39512 | 30092 ft | 444 kts | 258° |
| 2026-05-08 01:56 | 51.52011 | 14.29797 | 30089 ft | 446 kts | 258° |
| 2026-05-08 01:57 | 51.50580 | 14.20076 | 30086 ft | 448 kts | 258° |
| 2026-05-08 01:57 | 51.49141 | 14.10308 | 30082 ft | 450 kts | 258° |
| 2026-05-08 01:58 | 51.47702 | 14.00510 | 30081 ft | 452 kts | 258° |
| 2026-05-08 01:58 | 51.46252 | 13.90710 | 30086 ft | 450 kts | 258° |
| 2026-05-08 01:59 | 51.45571 | 13.80934 | 30088 ft | 441 kts | 272° |
| 2026-05-08 01:59 | 51.45742 | 13.71134 | 29970 ft | 435 kts | 273° |
| 2026-05-08 02:00 | 51.45799 | 13.66367 | 29635 ft | 420 kts | 272° |
| 2026-05-08 02:00 | 51.45824 | 13.61745 | 28961 ft | 414 kts | 272° |
| 2026-05-08 02:00 | 51.45836 | 13.57155 | 28092 ft | 411 kts | 272° |
| 2026-05-08 02:00 | 51.45847 | 13.52670 | 27074 ft | 407 kts | 272° |
| 2026-05-08 02:01 | 51.45858 | 13.48130 | 26105 ft | 400 kts | 272° |
| 2026-05-08 02:01 | 51.45867 | 13.43800 | 25616 ft | 380 kts | 272° |
| 2026-05-08 02:01 | 51.45876 | 13.39612 | 24724 ft | 375 kts | 272° |
| 2026-05-08 02:01 | 51.45884 | 13.35491 | 23701 ft | 372 kts | 272° |
| 2026-05-08 02:02 | 51.45890 | 13.31379 | 22934 ft | 361 kts | 271° |
| 2026-05-08 02:02 | 51.45894 | 13.27403 | 22511 ft | 352 kts | 271° |
| 2026-05-08 02:02 | 51.45898 | 13.23542 | 22134 ft | 347 kts | 271° |
| 2026-05-08 02:02 | 51.45902 | 13.19639 | 21835 ft | 358 kts | 271° |
| 2026-05-08 02:03 | 51.45893 | 13.15588 | 21519 ft | 362 kts | 271° |
| 2026-05-08 02:03 | 51.45879 | 13.11584 | 21196 ft | 355 kts | 271° |
| 2026-05-08 02:03 | 51.46048 | 13.07693 | 20866 ft | 343 kts | 286° |
| 2026-05-08 02:03 | 51.46988 | 13.04306 | 20538 ft | 334 kts | 300° |
| 2026-05-08 02:04 | 51.48223 | 13.01168 | 20141 ft | 330 kts | 303° |
| 2026-05-08 02:04 | 51.49470 | 12.98101 | 19760 ft | 325 kts | 303° |
| 2026-05-08 02:04 | 51.50660 | 12.95104 | 19378 ft | 321 kts | 302° |
| 2026-05-08 02:04 | 51.51847 | 12.92059 | 18989 ft | 319 kts | 302° |
| 2026-05-08 02:05 | 51.53037 | 12.88973 | 18613 ft | 337 kts | 302° |
| 2026-05-08 02:05 | 51.54307 | 12.85734 | 18199 ft | 346 kts | 302° |
| 2026-05-08 02:05 | 51.55605 | 12.82503 | 17795 ft | 343 kts | 303° |
| 2026-05-08 02:05 | 51.56852 | 12.79265 | 17383 ft | 336 kts | 295° |
| 2026-05-08 02:06 | 51.57333 | 12.75682 | 17025 ft | 328 kts | 272° |
| 2026-05-08 02:06 | 51.57214 | 12.72077 | 16640 ft | 323 kts | 266° |
| 2026-05-08 02:06 | 51.56998 | 12.68528 | 16254 ft | 318 kts | 265° |
| 2026-05-08 02:06 | 51.56800 | 12.64996 | 15892 ft | 312 kts | 266° |
| 2026-05-08 02:07 | 51.56633 | 12.61566 | 15523 ft | 307 kts | 266° |
| 2026-05-08 02:07 | 51.56479 | 12.58200 | 15162 ft | 303 kts | 267° |
| 2026-05-08 02:07 | 51.56324 | 12.54729 | 14816 ft | 319 kts | 267° |
| 2026-05-08 02:07 | 51.56163 | 12.51094 | 14435 ft | 330 kts | 267° |
| 2026-05-08 02:08 | 51.55999 | 12.47400 | 14034 ft | 328 kts | 266° |
| 2026-05-08 02:08 | 51.55836 | 12.43790 | 13644 ft | 323 kts | 266° |
| 2026-05-08 02:08 | 51.55676 | 12.40249 | 13263 ft | 317 kts | 266° |
| 2026-05-08 02:08 | 51.55516 | 12.36694 | 12887 ft | 312 kts | 266° |
| 2026-05-08 02:09 | 51.55360 | 12.33267 | 12529 ft | 307 kts | 266° |
| 2026-05-08 02:09 | 51.55204 | 12.29875 | 12165 ft | 302 kts | 266° |
| 2026-05-08 02:09 | 51.55049 | 12.26512 | 11810 ft | 297 kts | 266° |
| 2026-05-08 02:09 | 51.54898 | 12.23246 | 11537 ft | 290 kts | 265° |
| 2026-05-08 02:10 | 51.54748 | 12.20046 | 11270 ft | 283 kts | 265° |
| 2026-05-08 02:10 | 51.54601 | 12.16914 | 11003 ft | 276 kts | 265° |
| 2026-05-08 02:10 | 51.54459 | 12.13899 | 10742 ft | 270 kts | 265° |
| 2026-05-08 02:10 | 51.54317 | 12.10890 | 10476 ft | 265 kts | 265° |
| 2026-05-08 02:11 | 51.54179 | 12.07983 | 10221 ft | 265 kts | 265° |
| 2026-05-08 02:11 | 51.54031 | 12.04870 | 9987 ft | 288 kts | 265° |
| 2026-05-08 02:11 | 51.53877 | 12.01653 | 9733 ft | 291 kts | 265° |
| 2026-05-08 02:11 | 51.53719 | 11.98449 | 9470 ft | 285 kts | 265° |
| 2026-05-08 02:12 | 51.53564 | 11.95329 | 9208 ft | 278 kts | 265° |
| 2026-05-08 02:12 | 51.53411 | 11.92235 | 8939 ft | 272 kts | 265° |
| 2026-05-08 02:12 | 51.53263 | 11.89241 | 8646 ft | 268 kts | 265° |
| 2026-05-08 02:12 | 51.53115 | 11.86301 | 8341 ft | 264 kts | 265° |
| 2026-05-08 02:13 | 51.52970 | 11.83409 | 8046 ft | 260 kts | 265° |
| 2026-05-08 02:13 | 51.52823 | 11.80498 | 7740 ft | 256 kts | 265° |
| 2026-05-08 02:13 | 51.52679 | 11.77651 | 7441 ft | 263 kts | 265° |
| 2026-05-08 02:13 | 51.52522 | 11.74610 | 7130 ft | 282 kts | 265° |
| 2026-05-08 02:14 | 51.52360 | 11.71473 | 6851 ft | 282 kts | 265° |
| 2026-05-08 02:14 | 51.52200 | 11.68347 | 6505 ft | 278 kts | 265° |
| 2026-05-08 02:14 | 51.52056 | 11.65321 | 6226 ft | 271 kts | 266° |
| 2026-05-08 02:14 | 51.51820 | 11.62337 | 5961 ft | 267 kts | 252° |
| 2026-05-08 02:15 | 51.50873 | 11.59792 | 5728 ft | 271 kts | 224° |
| 2026-05-08 02:15 | 51.49264 | 11.58259 | 5486 ft | 271 kts | 195° |
| 2026-05-08 02:15 | 51.47420 | 11.57927 | 5205 ft | 262 kts | 181° |
| 2026-05-08 02:15 | 51.45665 | 11.57889 | 4951 ft | 247 kts | 179° |
| 2026-05-08 02:16 | 51.43982 | 11.57893 | 4687 ft | 236 kts | 179° |
| 2026-05-08 02:16 | 51.42347 | 11.57921 | 4433 ft | 234 kts | 179° |
| 2026-05-08 02:16 | 51.40741 | 11.58192 | 4179 ft | 232 kts | 155° |
| 2026-05-08 02:16 | 51.39586 | 11.59886 | 4039 ft | 232 kts | 115° |
| 2026-05-08 02:17 | 51.39306 | 11.62397 | 4003 ft | 230 kts | 88° |
| 2026-05-08 02:17 | 51.39239 | 11.64933 | 4001 ft | 226 kts | 98° |
| 2026-05-08 02:17 | 51.39076 | 11.67463 | 3998 ft | 229 kts | 94° |
| 2026-05-08 02:17 | 51.38976 | 11.69994 | 4008 ft | 229 kts | 91° |
| 2026-05-08 02:18 | 51.38971 | 11.72564 | 4000 ft | 228 kts | 88° |
| 2026-05-08 02:18 | 51.39028 | 11.75099 | 4005 ft | 230 kts | 87° |
| 2026-05-08 02:18 | 51.39106 | 11.77657 | 3992 ft | 229 kts | 86° |
| 2026-05-08 02:18 | 51.39224 | 11.80178 | 3993 ft | 228 kts | 84° |
| 2026-05-08 02:19 | 51.39342 | 11.82713 | 4006 ft | 228 kts | 85° |
| 2026-05-08 02:19 | 51.39450 | 11.85241 | 4001 ft | 227 kts | 85° |
| 2026-05-08 02:19 | 51.39594 | 11.87771 | 3984 ft | 228 kts | 85° |
| 2026-05-08 02:19 | 51.39707 | 11.90272 | 3993 ft | 222 kts | 85° |
| 2026-05-08 02:20 | 51.39817 | 11.92662 | 3983 ft | 207 kts | 84° |
| 2026-05-08 02:20 | 51.39939 | 11.94947 | 3752 ft | 205 kts | 85° |
| 2026-05-08 02:20 | 51.40043 | 11.97166 | 3563 ft | 196 kts | 84° |
| 2026-05-08 02:20 | 51.40144 | 11.99297 | 3279 ft | 188 kts | 84° |
| 2026-05-08 02:21 | 51.40246 | 12.01370 | 2978 ft | 181 kts | 85° |
| 2026-05-08 02:21 | 51.40340 | 12.03313 | 2707 ft | 173 kts | 85° |
| 2026-05-08 02:21 | 51.40429 | 12.05160 | 2444 ft | 157 kts | 84° |
| 2026-05-08 02:21 | 51.40519 | 12.06840 | 2204 ft | 144 kts | 84° |
| 2026-05-08 02:22 | 51.40593 | 12.08413 | 2036 ft | 142 kts | 84° |
| 2026-05-08 02:22 | 51.40660 | 12.09989 | 1832 ft | 141 kts | 84° |
| 2026-05-08 02:22 | 51.40734 | 12.11552 | 1627 ft | 141 kts | 84° |
| 2026-05-08 02:22 | 51.40809 | 12.13116 | 1439 ft | 141 kts | 85° |
| 2026-05-08 02:23 | 51.40875 | 12.14666 | 1237 ft | 138 kts | 85° |
| 2026-05-08 02:23 | 51.40937 | 12.16205 | 1122 ft | 142 kts | 85° |
| 2026-05-08 02:23 | 51.41027 | 12.17784 | 872 ft | 145 kts | 84° |
| 2026-05-08 02:23 | 51.41100 | 12.19337 | 649 ft | 136 kts | 84° |
| 2026-05-08 02:24 | 51.41177 | 12.20859 | 507 ft | 138 kts | 84° |
| 2026-05-08 02:24 | 51.41246 | 12.22243 | 486 ft | 100 kts | 86° |
| 2026-05-08 02:24 | 51.41281 | 12.23065 | 486 ft | 59 kts | 86° |
| 2026-05-08 02:24 | 51.41311 | 12.23687 | 486 ft | 52 kts | 88° |
| 2026-05-08 02:25 | 51.41247 | 12.24158 | 486 ft | 27 kts | 115° |
| 2026-05-08 02:25 | 51.41205 | 12.24300 | 486 ft | 8 kts | 115° |
| 2026-05-08 02:25 | 51.41175 | 12.24396 | 486 ft | 9 kts | 132° |
| 2026-05-08 02:25 | 51.41109 | 12.24403 | 486 ft | 11 kts | 212° |
| 2026-05-08 02:26 | 51.41079 | 12.24289 | 486 ft | 11 kts | 261° |
| 2026-05-08 02:26 | 51.41072 | 12.24196 | 486 ft | 9 kts | 264° |
| 2026-05-08 02:26 | 51.41033 | 12.24124 | 486 ft | 7 kts | 178° |
| 2026-05-08 02:26 | 51.40986 | 12.24119 | 486 ft | 7 kts | 212° |
| 2026-05-08 02:27 | 51.40973 | 12.24064 | 486 ft | 4 kts | 261° |
| 2026-05-08 02:27 | 51.40972 | 12.24047 | 486 ft | 0 kts | 264° |
| 2026-05-08 02:27 | 51.40971 | 12.24041 | 486 ft | 0 kts | 262° |
| 2026-05-08 02:27 | 51.40971 | 12.24028 | 486 ft | 1 kts | 265° |
| 2026-05-08 02:28 | 51.40971 | 12.24027 | 486 ft | 0 kts | 265° |